TimeCDT,TemperatureF,Dew PointF,Humidity,Sea Level PressureIn,VisibilityMPH,Wind Direction,Wind SpeedMPH,Gust SpeedMPH,PrecipitationIn,Events,Conditions,WindDirDegrees,DateUTC
12:53 AM,66.9,57.9,73,29.96,10.0,SSW,8.1,-,N/A,,Clear,200,2013-04-09 05:53:00
1:53 AM,66.0,59.0,78,29.96,10.0,South,8.1,-,N/A,,Clear,190,2013-04-09 06:53:00
2:53 AM,66.0,59.0,78,29.96,10.0,South,5.8,-,N/A,,Clear,180,2013-04-09 07:53:00
3:53 AM,64.9,59.0,81,29.98,10.0,SSE,3.5,-,N/A,,Clear,160,2013-04-09 08:53:00
4:53 AM,66.0,60.1,81,29.99,10.0,South,9.2,-,N/A,,Mostly Cloudy,190,2013-04-09 09:53:00
5:53 AM,66.0,61.0,84,29.99,10.0,South,8.1,-,N/A,,Mostly Cloudy,180,2013-04-09 10:53:00
6:53 AM,66.0,62.1,87,30.01,10.0,South,3.5,-,N/A,,Overcast,180,2013-04-09 11:53:00
7:41 AM,66.2,62.6,88,30.04,10.0,South,6.9,-,N/A,,Mostly Cloudy,190,2013-04-09 12:41:00
7:53 AM,66.0,62.1,87,30.04,10.0,South,4.6,-,N/A,,Overcast,180,2013-04-09 12:53:00
8:53 AM,66.9,62.1,84,30.04,10.0,South,9.2,-,N/A,,Overcast,170,2013-04-09 13:53:00
9:25 AM,66.2,62.6,88,30.07,9.0,SSE,6.9,-,0.00,Rain,Light Rain,160,2013-04-09 14:25:00
9:53 AM,66.9,63.0,87,30.06,10.0,South,6.9,-,0.01,,Overcast,180,2013-04-09 14:53:00
10:53 AM,68.0,64.0,87,30.04,10.0,SSE,11.5,-,0.00,,Scattered Clouds,160,2013-04-09 15:53:00
11:35 AM,69.8,64.4,83,30.07,10.0,WNW,6.9,-,0.00,,Overcast,290,2013-04-09 16:35:00
11:53 AM,70.0,64.9,84,30.06,10.0,SW,9.2,-,0.00,,Overcast,220,2013-04-09 16:53:00
12:06 PM,71.6,64.4,78,30.06,10.0,SSW,10.4,-,N/A,,Overcast,200,2013-04-09 17:06:00
12:38 PM,71.6,64.4,78,30.06,10.0,South,6.9,-,N/A,,Mostly Cloudy,180,2013-04-09 17:38:00
12:53 PM,73.0,64.9,76,30.04,10.0,SSW,9.2,-,N/A,,Overcast,200,2013-04-09 17:53:00
1:18 PM,73.4,64.4,73,30.05,10.0,SSW,10.4,-,N/A,,Overcast,210,2013-04-09 18:18:00
1:39 PM,73.4,64.4,73,30.04,10.0,SSW,10.4,-,N/A,,Overcast,200,2013-04-09 18:39:00
1:53 PM,77.0,64.9,66,30.03,10.0,South,12.7,18.4,N/A,,Overcast,180,2013-04-09 18:53:00
2:53 PM,78.1,64.9,64,30.00,10.0,South,12.7,23.0,N/A,,Mostly Cloudy,190,2013-04-09 19:53:00
3:53 PM,80.1,64.9,60,29.98,10.0,SSW,17.3,26.5,N/A,,Mostly Cloudy,210,2013-04-09 20:53:00
4:53 PM,81.0,64.9,58,29.96,10.0,South,16.1,26.5,N/A,,Scattered Clouds,190,2013-04-09 21:53:00
5:53 PM,81.0,64.9,58,29.95,10.0,South,16.1,20.7,N/A,,Partly Cloudy,190,2013-04-09 22:53:00
6:53 PM,78.1,64.0,62,29.96,10.0,SSW,11.5,-,N/A,,Clear,200,2013-04-09 23:53:00
7:53 PM,77.0,64.0,64,29.95,10.0,South,9.2,-,N/A,,Clear,180,2013-04-10 00:53:00
8:53 PM,75.9,64.0,67,29.96,10.0,South,8.1,-,N/A,,Clear,180,2013-04-10 01:53:00
9:53 PM,75.0,63.0,66,29.97,10.0,South,12.7,-,N/A,,Clear,180,2013-04-10 02:53:00
10:53 PM,73.0,64.0,73,29.98,10.0,South,11.5,-,N/A,,Clear,180,2013-04-10 03:53:00
11:53 PM,73.0,64.0,73,29.96,10.0,SSW,12.7,23.0,N/A,,Clear,200,2013-04-10 04:53:00